Time;durP1;ratioP1;P1;durP2;ratioP2;P2;SDS_P1;SDS_P2;PMS_P1;PMS_P2;Temp;Humidity;BMP_temperature;BMP_pressure;BME280_temperature;BME280_humidity;BME280_pressure;Samples;Min_cycle;Max_cycle;Signal;HPM_P1;HPM_P2
2021/12/12 05:32:34;;;;;;;21.37;12.43;;;3.30;99.90;;;;;;5094969;27;20683;-63
2021/12/12 05:35:03;;;;;;;18.40;10.77;;;3.30;99.90;;;;;;5095962;28;20081;-63
2021/12/12 05:37:29;;;;;;;19.88;9.75;;;3.40;99.90;;;;;;5080515;28;20124;-63
2021/12/12 05:40:00;;;;;;;18.13;9.77;;;3.40;99.90;;;;;;5090735;28;20099;-63
2021/12/12 05:42:28;;;;;;;20.20;9.95;;;3.40;99.90;;;;;;5088364;28;20125;-63
2021/12/12 05:44:54;;;;;;;18.55;9.43;;;3.40;99.90;;;;;;5094518;28;20024;-63
2021/12/12 05:47:20;;;;;;;16.75;8.82;;;3.40;99.90;;;;;;5094072;28;20732;-63
2021/12/12 05:49:46;;;;;;;17.58;8.68;;;3.50;99.90;;;;;;5095312;28;20042;-63
2021/12/12 05:52:15;;;;;;;17.63;10.15;;;3.40;99.90;;;;;;5086701;28;20032;-63
2021/12/12 05:54:43;;;;;;;17.55;10.07;;;3.50;99.90;;;;;;5086209;28;20095;-63
2021/12/12 05:57:09;;;;;;;16.23;9.52;;;3.50;99.90;;;;;;5096064;28;20012;-63
2021/12/12 05:59:37;;;;;;;13.77;7.30;;;3.60;99.90;;;;;;5089784;28;20030;-63
2021/12/12 09:44:36;;;;;;;7.95;3.92;;;5.50;99.90;;;;;;5069991;27;20372;-64
2021/12/12 09:47:58;;;;;;;14.93;4.75;;;5.40;99.90;;;;;;5091445;28;20027;-65
2021/12/12 09:54:01;;;;;;;11.82;4.40;;;5.30;99.90;;;;;;5073666;28;20031;-65
2021/12/12 09:56:49;;;;;;;8.98;3.30;;;5.40;99.90;;;;;;5071442;28;20039;-65
2021/12/12 09:59:40;;;;;;;10.02;3.35;;;5.30;99.90;;;;;;5073546;28;20031;-63
2021/12/12 10:02:14;;;;;;;8.73;2.70;;;5.40;99.90;;;;;;5072911;28;20470;-64
2021/12/12 10:04:55;;;;;;;17.10;4.18;;;5.40;99.90;;;;;;5070441;28;20421;-64
2021/12/12 10:07:30;;;;;;;15.48;2.90;;;5.40;99.90;;;;;;5071377;28;20327;-64
2021/12/12 10:09:59;;;;;;;9.73;3.15;;;5.40;99.90;;;;;;5075821;28;20021;-64
2021/12/12 10:12:33;;;;;;;7.75;3.85;;;5.40;99.90;;;;;;5065778;28;20035;-64
2021/12/12 10:14:59;;;;;;;11.68;3.40;;;5.50;99.90;;;;;;5066117;28;20035;-64
2021/12/12 10:17:48;;;;;;;7.35;2.78;;;5.50;99.90;;;;;;5063236;28;20036;-65
2021/12/12 10:20:29;;;;;;;7.45;3.05;;;5.40;99.90;;;;;;5071847;28;20217;-66
2021/12/12 10:23:16;;;;;;;5.85;1.83;;;5.40;99.90;;;;;;5069605;28;20040;-65
2021/12/12 10:25:52;;;;;;;5.20;1.63;;;5.40;99.90;;;;;;5077651;28;20523;-65
2021/12/12 10:28:54;;;;;;;7.03;2.00;;;5.40;99.90;;;;;;5060061;28;20025;-65
2021/12/12 10:31:23;;;;;;;6.95;1.83;;;5.40;99.90;;;;;;5069564;28;20021;-65
2021/12/12 10:34:08;;;;;;;6.50;2.55;;;5.40;99.90;;;;;;5070918;28;20021;-65
2021/12/12 10:36:46;;;;;;;5.57;2.58;;;5.40;99.90;;;;;;5074523;28;20310;-65
2021/12/12 10:39:22;;;;;;;9.82;2.15;;;5.40;99.90;;;;;;5066199;28;20029;-65
2021/12/12 10:41:55;;;;;;;11.00;1.75;;;5.40;99.90;;;;;;5070644;28;20032;-64
2021/12/12 10:44:27;;;;;;;7.38;2.15;;;5.40;99.90;;;;;;5071099;28;20029;-64
2021/12/12 10:47:04;;;;;;;5.03;1.73;;;5.50;99.90;;;;;;5073296;28;20025;-64
2021/12/12 10:49:38;;;;;;;5.50;2.22;;;5.50;99.90;;;;;;5073453;28;20035;-64
2021/12/12 10:52:11;;;;;;;6.40;2.80;;;5.50;99.90;;;;;;5070847;28;20027;-64
2021/12/12 10:55:00;;;;;;;4.28;2.22;;;5.60;99.90;;;;;;5066300;28;20416;-65
2021/12/12 10:57:31;;;;;;;9.93;3.30;;;5.60;99.90;;;;;;5064789;28;20027;-64
2021/12/12 11:00:16;;;;;;;11.32;3.47;;;5.70;99.90;;;;;;5045123;28;20029;-64
2021/12/12 11:03:09;;;;;;;8.90;3.13;;;6.00;99.90;;;;;;5048604;28;20033;-65
2021/12/12 11:05:38;;;;;;;8.95;3.22;;;6.00;99.90;;;;;;5052313;28;20036;-65
2021/12/12 11:08:24;;;;;;;13.90;6.18;;;6.00;99.90;;;;;;5046801;28;20394;-65
2021/12/12 11:10:53;;;;;;;11.45;3.83;;;6.30;99.90;;;;;;5029095;28;20366;-65
2021/12/12 11:13:33;;;;;;;7.65;3.15;;;6.40;99.90;;;;;;5053624;28;20385;-65
2021/12/12 11:16:04;;;;;;;5.75;3.22;;;6.40;99.90;;;;;;5050155;28;20064;-65
2021/12/12 11:18:53;;;;;;;5.22;2.47;;;6.30;99.90;;;;;;5047871;28;20031;-65
2021/12/12 11:21:27;;;;;;;3.90;2.28;;;6.20;99.90;;;;;;5051066;28;20498;-65
2021/12/12 11:24:02;;;;;;;7.03;1.92;;;6.10;99.90;;;;;;5054290;28;20032;-65
2021/12/12 11:26:57;;;;;;;3.47;1.80;;;6.10;99.90;;;;;;5058624;28;20063;-65
2021/12/12 11:29:33;;;;;;;5.90;2.22;;;6.10;99.90;;;;;;5055658;28;20058;-65
2021/12/12 11:32:09;;;;;;;2.92;1.92;;;6.10;99.90;;;;;;5027318;22;20582;-70
2021/12/12 11:34:41;;;;;;;9.65;2.05;;;6.10;99.90;;;;;;5008473;28;20053;-70
2021/12/12 11:37:23;;;;;;;5.53;2.20;;;6.00;99.90;;;;;;5010148;28;20018;-70
2021/12/12 11:40:01;;;;;;;3.95;1.67;;;6.00;99.90;;;;;;5007548;28;20034;-70
2021/12/12 11:42:33;;;;;;;6.05;2.15;;;6.00;99.90;;;;;;5009293;28;20045;-68
2021/12/12 11:45:16;;;;;;;3.90;2.00;;;6.00;99.90;;;;;;5008828;28;20041;-68
2021/12/12 11:47:54;;;;;;;4.85;3.03;;;6.00;99.90;;;;;;4991982;28;20030;-68
2021/12/12 11:50:46;;;;;;;5.28;2.28;;;6.00;99.90;;;;;;4989702;28;20120;-68
2021/12/12 11:53:24;;;;;;;8.18;2.83;;;6.00;99.90;;;;;;4991470;28;20137;-68
2021/12/12 11:55:56;;;;;;;4.28;2.60;;;6.00;99.90;;;;;;5009749;28;20585;-68
2021/12/12 11:58:33;;;;;;;5.68;3.00;;;5.90;99.90;;;;;;5007749;28;20128;-68
2021/12/12 12:01:17;;;;;;;3.05;1.95;;;6.00;99.90;;;;;;5009129;28;20030;-69
2021/12/12 12:04:18;;;;;;;4.97;2.35;;;6.00;99.90;;;;;;5008342;28;20085;-68
2021/12/12 12:07:20;;;;;;;6.68;1.92;;;6.00;99.90;;;;;;4976063;28;20041;-69
2021/12/12 12:09:52;;;;;;;5.10;2.20;;;6.00;99.90;;;;;;5008275;28;20026;-69
2021/12/12 12:12:34;;;;;;;5.97;2.00;;;6.00;99.90;;;;;;4991660;28;20062;-68
2021/12/12 12:15:18;;;;;;;5.13;3.15;;;6.00;99.90;;;;;;5006780;28;20045;-69
2021/12/12 12:18:03;;;;;;;8.50;4.63;;;6.00;99.90;;;;;;5009432;28;20040;-69
2021/12/12 12:20:52;;;;;;;3.67;2.70;;;6.00;99.90;;;;;;5007261;28;20032;-69
2021/12/12 12:23:19;;;;;;;3.25;2.58;;;6.00;99.90;;;;;;5005342;28;20176;-67
2021/12/12 12:29:02;;;;;;;3.67;1.77;;;6.00;99.90;;;;;;5000646;28;20037;-66
2021/12/12 12:31:34;;;;;;;1.95;1.50;;;6.10;99.90;;;;;;5004842;28;20253;-67
2021/12/12 12:34:30;;;;;;;3.83;2.00;;;6.10;99.90;;;;;;5004288;28;20348;-67
2021/12/12 12:37:46;;;;;;;4.88;2.22;;;6.10;99.90;;;;;;5007994;28;20034;-67
2021/12/12 12:40:50;;;;;;;5.65;2.60;;;6.10;99.90;;;;;;5004979;28;20088;-67
2021/12/12 12:43:21;;;;;;;8.40;2.15;;;6.10;99.90;;;;;;5005461;28;20022;-66
2021/12/12 12:46:08;;;;;;;2.38;2.10;;;6.10;99.90;;;;;;5006285;28;20042;-66
2021/12/12 12:48:45;;;;;;;6.68;2.90;;;6.20;99.90;;;;;;5005249;28;20571;-66
2021/12/12 12:51:35;;;;;;;7.50;3.47;;;6.20;99.90;;;;;;5006518;28;20053;-67
2021/12/12 12:54:38;;;;;;;5.63;2.92;;;6.20;99.90;;;;;;5007064;28;20108;-66
2021/12/12 12:57:28;;;;;;;4.88;2.53;;;6.20;99.90;;;;;;5005415;28;20038;-67
2021/12/12 13:00:06;;;;;;;6.60;2.35;;;6.30;99.90;;;;;;5003706;28;20018;-66
2021/12/12 13:03:06;;;;;;;5.60;2.53;;;6.30;99.90;;;;;;4987087;28;20428;-66
2021/12/12 13:06:01;;;;;;;6.22;2.63;;;6.30;99.90;;;;;;5005814;28;20029;-68
2021/12/12 13:08:49;;;;;;;4.20;2.47;;;6.30;99.90;;;;;;5004037;28;20118;-66
2021/12/12 13:11:27;;;;;;;5.22;2.85;;;6.30;99.90;;;;;;4988294;28;20470;-66
2021/12/12 13:14:23;;;;;;;4.18;2.13;;;6.30;99.90;;;;;;5006779;28;20038;-67
2021/12/12 13:16:52;;;;;;;3.88;2.72;;;6.30;99.90;;;;;;5004623;28;20106;-66
2021/12/12 13:19:45;;;;;;;5.00;3.15;;;6.30;99.90;;;;;;5005394;28;20130;-66
2021/12/12 13:22:33;;;;;;;5.70;2.50;;;6.30;99.90;;;;;;5004135;28;20568;-67
2021/12/12 13:25:21;;;;;;;6.18;2.75;;;6.30;99.90;;;;;;5005614;28;20079;-66
2021/12/12 13:28:07;;;;;;;3.40;1.77;;;6.30;99.90;;;;;;4997096;28;20580;-66
2021/12/12 13:31:01;;;;;;;2.50;1.75;;;6.30;99.90;;;;;;4998331;28;20053;-66
2021/12/12 13:33:42;;;;;;;4.82;1.38;;;6.40;99.90;;;;;;5002562;28;20030;-67
2021/12/12 13:36:25;;;;;;;4.97;2.20;;;6.40;99.90;;;;;;5000667;28;20034;-68
2021/12/12 13:38:57;;;;;;;5.60;2.05;;;6.30;99.90;;;;;;5002936;28;20029;-67
2021/12/12 13:41:41;;;;;;;2.33;1.60;;;6.30;99.90;;;;;;5004010;28;20026;-67
2021/12/12 13:44:37;;;;;;;3.75;2.08;;;6.30;99.90;;;;;;5004339;28;20478;-68
2021/12/12 13:47:50;;;;;;;5.30;2.45;;;6.20;99.90;;;;;;5006260;28;20026;-68
2021/12/12 13:51:11;;;;;;;2.13;1.92;;;6.20;99.90;;;;;;5005338;28;20498;-68
2021/12/12 13:53:42;;;;;;;3.58;2.40;;;6.20;99.90;;;;;;4996780;28;20107;-68
2021/12/12 13:56:46;;;;;;;7.32;1.80;;;6.30;99.90;;;;;;5001877;28;20549;-68
2021/12/12 13:59:27;;;;;;;3.08;1.65;;;6.20;99.90;;;;;;5005254;28;20440;-68
2021/12/12 14:01:58;;;;;;;2.15;1.77;;;6.30;99.90;;;;;;5006120;28;20152;-68
2021/12/12 14:04:59;;;;;;;1.85;1.50;;;6.30;99.90;;;;;;5003233;28;20628;-67
2021/12/12 14:07:31;;;;;;;3.75;2.58;;;6.30;99.90;;;;;;5006684;28;20026;-68
2021/12/12 14:10:00;;;;;;;2.05;1.75;;;6.30;99.90;;;;;;5003807;28;20049;-68
2021/12/12 14:12:34;;;;;;;3.47;1.67;;;6.30;99.90;;;;;;5004583;28;20037;-68
2021/12/12 14:15:16;;;;;;;1.90;1.60;;;6.30;99.90;;;;;;5005667;28;20053;-68
2021/12/12 14:17:46;;;;;;;3.17;1.67;;;6.30;99.90;;;;;;5006275;28;20077;-68
2021/12/12 14:20:18;;;;;;;1.83;1.60;;;6.30;99.90;;;;;;5004776;28;20524;-67
2021/12/12 14:22:48;;;;;;;2.63;1.67;;;6.30;99.90;;;;;;5005486;28;20087;-69
2021/12/12 14:25:15;;;;;;;3.47;1.95;;;6.30;99.90;;;;;;4981338;28;20041;-68
2021/12/12 14:27:45;;;;;;;3.95;2.28;;;6.30;99.90;;;;;;4984045;28;20100;-67
2021/12/12 14:30:12;;;;;;;5.45;1.40;;;6.30;99.90;;;;;;5006210;28;20033;-68
2021/12/12 14:32:45;;;;;;;3.65;1.73;;;6.30;99.90;;;;;;5009100;28;20053;-69
2021/12/12 14:35:17;;;;;;;4.22;2.05;;;6.30;99.90;;;;;;5010802;28;20032;-67
2021/12/12 14:37:45;;;;;;;1.80;1.33;;;6.30;99.90;;;;;;5008729;28;20128;-68
2021/12/12 14:40:21;;;;;;;3.47;1.63;;;6.30;99.90;;;;;;5008499;28;20121;-69
2021/12/12 14:42:54;;;;;;;3.17;1.60;;;6.30;99.90;;;;;;5008741;28;20034;-69
2021/12/12 14:45:28;;;;;;;5.35;1.85;;;6.30;99.90;;;;;;5006701;28;20026;-73
2021/12/12 14:47:59;;;;;;;6.20;2.10;;;6.30;99.90;;;;;;5009936;28;20072;-69
2021/12/12 14:50:34;;;;;;;2.67;1.42;;;6.30;99.90;;;;;;4991608;28;20447;-67
2021/12/12 14:53:05;;;;;;;2.08;1.77;;;6.30;99.90;;;;;;5008686;28;20030;-67
2021/12/12 14:55:47;;;;;;;3.53;1.83;;;6.20;99.90;;;;;;5009851;28;20030;-67
2021/12/12 14:58:20;;;;;;;3.97;2.00;;;6.30;99.90;;;;;;5005351;28;20056;-66
2021/12/12 15:01:04;;;;;;;1.85;1.65;;;6.50;99.90;;;;;;5007827;28;20100;-66
2021/12/12 15:03:37;;;;;;;3.78;1.95;;;6.50;99.90;;;;;;5006571;28;20058;-66
2021/12/12 15:06:06;;;;;;;3.60;1.73;;;6.40;99.90;;;;;;5008386;28;20036;-67
2021/12/12 15:09:01;;;;;;;3.03;1.90;;;6.40;99.90;;;;;;4990497;28;20026;-67
2021/12/12 15:11:37;;;;;;;2.45;1.50;;;6.30;99.90;;;;;;4988403;28;20042;-66
2021/12/12 15:14:10;;;;;;;2.38;1.58;;;6.30;99.90;;;;;;5007318;28;20034;-67
2021/12/12 15:16:39;;;;;;;3.50;1.98;;;6.20;99.90;;;;;;5007844;28;20034;-67
2021/12/12 15:19:12;;;;;;;5.10;2.25;;;6.20;99.90;;;;;;5008041;28;20037;-67
2021/12/12 15:21:46;;;;;;;5.25;2.72;;;6.20;99.90;;;;;;5008066;28;20041;-66
2021/12/12 15:24:19;;;;;;;5.65;2.28;;;6.10;99.90;;;;;;5007128;28;20026;-66
2021/12/12 15:26:49;;;;;;;2.35;2.00;;;6.10;99.90;;;;;;5010480;28;20444;-66
2021/12/12 15:29:26;;;;;;;3.30;2.35;;;6.10;99.90;;;;;;5006397;28;20018;-66
2021/12/12 15:31:55;;;;;;;3.50;1.92;;;6.10;99.90;;;;;;5006638;28;20033;-66
2021/12/12 15:34:27;;;;;;;3.55;1.60;;;6.10;99.90;;;;;;5007165;28;20508;-66
2021/12/12 15:37:03;;;;;;;4.30;1.95;;;6.10;99.90;;;;;;5006304;28;20025;-66
2021/12/12 15:39:32;;;;;;;3.42;2.50;;;6.10;99.90;;;;;;5005340;28;20061;-67
2021/12/12 15:42:01;;;;;;;5.18;3.55;;;6.10;99.90;;;;;;5007574;28;20025;-67
2021/12/12 15:44:36;;;;;;;3.33;2.47;;;6.10;99.90;;;;;;5006854;28;20045;-68
2021/12/12 15:47:09;;;;;;;4.10;2.60;;;6.10;99.90;;;;;;5008399;28;20144;-68
2021/12/12 15:49:42;;;;;;;6.30;2.63;;;6.00;99.90;;;;;;5004265;28;20026;-67
2021/12/12 15:52:22;;;;;;;5.82;2.90;;;6.00;99.90;;;;;;5004038;28;20033;-67
2021/12/12 15:54:48;;;;;;;4.55;2.45;;;6.00;99.90;;;;;;5005099;28;20033;-67
2021/12/12 15:57:21;;;;;;;6.75;3.65;;;6.00;99.90;;;;;;5007213;28;20034;-67
2021/12/12 15:59:53;;;;;;;5.75;3.05;;;6.10;99.90;;;;;;5005527;28;20060;-67
2021/12/12 16:02:24;;;;;;;6.03;2.70;;;6.00;99.90;;;;;;5007956;28;20026;-67
2021/12/12 16:04:59;;;;;;;3.38;2.80;;;6.00;99.90;;;;;;4982616;28;20038;-69
2021/12/12 16:07:26;;;;;;;5.57;2.55;;;6.10;99.90;;;;;;5007730;28;20057;-69
2021/12/12 16:10:04;;;;;;;4.00;2.67;;;6.10;99.90;;;;;;4990878;28;20026;-69
2021/12/12 16:12:31;;;;;;;5.18;3.40;;;6.10;99.90;;;;;;5005550;28;20576;-69
2021/12/12 16:14:59;;;;;;;5.80;2.15;;;6.10;99.90;;;;;;5005707;28;20045;-68
2021/12/12 16:17:32;;;;;;;5.03;2.83;;;6.10;99.90;;;;;;5007147;28;20034;-68
2021/12/12 16:20:11;;;;;;;4.40;2.30;;;6.10;99.90;;;;;;5004272;28;20064;-67
2021/12/12 16:22:43;;;;;;;2.80;2.00;;;6.10;99.90;;;;;;4989695;28;20033;-68
2021/12/12 16:25:12;;;;;;;3.30;2.72;;;6.10;99.90;;;;;;5003722;28;20424;-66
2021/12/12 16:27:40;;;;;;;3.28;2.67;;;6.10;99.90;;;;;;5008220;28;20030;-67
2021/12/12 16:30:11;;;;;;;5.00;3.22;;;6.10;99.90;;;;;;5006417;28;20032;-68
2021/12/12 16:32:49;;;;;;;5.57;3.15;;;6.10;99.90;;;;;;5005655;28;20116;-67
2021/12/12 16:35:17;;;;;;;4.05;2.92;;;6.10;99.90;;;;;;5006293;28;20036;-68
2021/12/12 16:37:46;;;;;;;3.78;2.60;;;6.10;99.90;;;;;;5006822;28;20032;-68
2021/12/12 16:40:26;;;;;;;3.05;2.75;;;6.10;99.90;;;;;;5005377;28;20029;-68
2021/12/12 16:42:55;;;;;;;4.80;2.17;;;6.20;99.90;;;;;;4983101;28;20029;-67
2021/12/12 16:45:39;;;;;;;5.05;3.30;;;6.20;99.90;;;;;;5007444;28;20037;-67
2021/12/12 16:48:08;;;;;;;3.42;2.50;;;6.20;99.90;;;;;;5005428;28;20018;-67
2021/12/12 16:50:42;;;;;;;6.53;3.33;;;6.20;99.90;;;;;;5006691;28;20544;-67
2021/12/12 16:53:08;;;;;;;5.72;2.80;;;6.20;99.90;;;;;;5004909;28;20045;-68
2021/12/12 16:55:42;;;;;;;4.40;2.67;;;6.20;99.90;;;;;;5006270;28;20121;-67
2021/12/12 16:58:15;;;;;;;3.55;2.42;;;6.20;99.90;;;;;;5005686;28;20448;-67
2021/12/12 17:00:46;;;;;;;5.90;3.47;;;6.20;99.90;;;;;;5003989;28;20029;-67
2021/12/12 17:03:19;;;;;;;5.22;3.00;;;6.20;99.90;;;;;;5005262;28;20563;-67
2021/12/12 17:05:48;;;;;;;3.08;2.70;;;6.20;99.90;;;;;;5006727;28;20540;-67
2021/12/12 17:08:36;;;;;;;3.13;2.53;;;6.20;99.90;;;;;;5005850;28;20037;-67
2021/12/12 17:11:03;;;;;;;2.70;2.35;;;6.20;99.90;;;;;;5005006;28;20167;-69
2021/12/12 17:13:36;;;;;;;5.75;2.78;;;6.20;99.90;;;;;;5005390;28;20036;-66
2021/12/12 17:16:04;;;;;;;5.18;2.65;;;6.20;99.90;;;;;;5005434;28;20025;-66
2021/12/12 17:18:33;;;;;;;5.57;3.08;;;6.20;99.90;;;;;;5004561;28;20038;-67
2021/12/12 17:21:04;;;;;;;3.40;2.45;;;6.20;99.90;;;;;;5001740;28;20038;-67
2021/12/12 17:23:42;;;;;;;4.00;3.33;;;6.20;99.90;;;;;;5005846;28;20128;-67
2021/12/12 17:26:10;;;;;;;4.35;2.85;;;6.20;99.90;;;;;;5006433;28;20014;-67
2021/12/12 17:28:37;;;;;;;4.32;3.60;;;6.30;99.90;;;;;;5004520;28;20033;-67
2021/12/12 17:31:09;;;;;;;3.47;3.03;;;6.20;99.90;;;;;;5013310;22;20073;-61
2021/12/12 17:33:58;;;;;;;6.10;3.50;;;6.20;99.90;;;;;;5002005;28;20029;-60
2021/12/12 17:36:38;;;;;;;5.25;3.85;;;6.20;99.90;;;;;;5002826;28;20068;-61
2021/12/12 17:39:13;;;;;;;5.95;4.30;;;6.20;99.90;;;;;;5004104;28;20034;-61
2021/12/12 17:41:39;;;;;;;3.15;2.83;;;6.20;99.90;;;;;;5004785;28;20438;-63
2021/12/12 17:44:14;;;;;;;;;;;6.20;99.90;;;;;;5005215;28;20049;-60
2021/12/12 17:47:05;;;;;;;6.63;3.25;;;6.20;99.90;;;;;;5003307;28;19924;-62
2021/12/12 17:49:30;;;;;;;4.35;2.90;;;6.20;99.90;;;;;;5002176;28;20101;-61
2021/12/12 17:51:59;;;;;;;;;;;6.30;99.90;;;;;;5003498;28;20054;-61
2021/12/12 17:54:33;;;;;;;2.65;2.35;;;6.30;99.90;;;;;;4999655;28;19917;-62
2021/12/12 17:57:08;;;;;;;6.85;2.90;;;6.30;99.90;;;;;;5002956;28;20018;-61
2021/12/12 17:59:57;;;;;;;3.80;2.17;;;6.30;99.90;;;;;;5003802;28;20342;-62
2021/12/12 18:02:26;;;;;;;2.65;2.38;;;6.30;99.90;;;;;;5002081;28;20022;-61
2021/12/12 18:04:52;;;;;;;3.72;2.53;;;6.30;99.90;;;;;;4986330;28;20034;-61
2021/12/12 18:07:55;;;;;;;3.00;2.67;;;6.30;99.90;;;;;;5006143;28;20034;-62
2021/12/12 18:10:50;;;;;;;3.65;3.10;;;6.30;99.90;;;;;;4984741;28;20108;-61
2021/12/12 18:13:33;;;;;;;3.53;2.20;;;6.40;99.90;;;;;;5005252;28;20928;-62
2021/12/12 18:16:22;;;;;;;3.55;2.35;;;6.40;99.90;;;;;;5005184;28;20033;-64
2021/12/12 18:19:06;;;;;;;3.13;2.50;;;6.40;99.90;;;;;;4989062;28;20474;-62
2021/12/12 18:21:40;;;;;;;4.03;2.80;;;6.40;99.90;;;;;;5002869;28;20115;-63
2021/12/12 18:24:13;;;;;;;4.18;2.58;;;6.40;99.90;;;;;;5004758;28;20041;-62
2021/12/12 18:26:54;;;;;;;3.10;2.28;;;6.50;99.90;;;;;;5005533;28;20029;-62
2021/12/12 18:29:29;;;;;;;3.60;2.92;;;6.50;99.90;;;;;;5002846;28;20033;-62
2021/12/12 18:31:58;;;;;;;3.47;2.08;;;6.50;99.90;;;;;;5006518;28;20030;-62
2021/12/12 18:34:36;;;;;;;3.28;1.83;;;6.50;99.90;;;;;;4989590;28;20119;-63
2021/12/12 18:37:08;;;;;;;3.22;1.95;;;6.50;99.90;;;;;;5006974;28;20061;-62
2021/12/12 18:40:05;;;;;;;2.92;2.65;;;6.50;99.90;;;;;;4987950;28;20450;-62
2021/12/12 18:42:38;;;;;;;3.28;2.13;;;6.50;99.90;;;;;;4987666;28;20072;-62
2021/12/12 18:45:12;;;;;;;2.60;2.28;;;6.60;99.90;;;;;;4986912;28;20037;-62
2021/12/12 18:47:41;;;;;;;2.05;1.48;;;6.60;99.90;;;;;;5006764;28;20129;-62
2021/12/12 18:50:24;;;;;;;2.95;2.28;;;6.60;99.90;;;;;;5006347;28;20033;-63
2021/12/12 18:52:55;;;;;;;3.92;2.25;;;6.60;99.90;;;;;;5005802;28;20030;-62
2021/12/12 18:55:27;;;;;;;3.65;2.13;;;6.60;99.90;;;;;;5006052;28;20042;-63
2021/12/12 18:58:05;;;;;;;2.45;1.92;;;6.60;99.90;;;;;;5007422;28;20379;-66
2021/12/12 19:00:41;;;;;;;2.92;2.17;;;6.60;99.90;;;;;;4999441;28;20025;-63
2021/12/12 19:03:21;;;;;;;2.70;2.45;;;6.60;99.90;;;;;;5006086;28;20038;-62
2021/12/12 19:05:50;;;;;;;5.63;2.50;;;6.60;99.90;;;;;;5004532;28;20025;-63
2021/12/12 19:08:24;;;;;;;4.30;2.78;;;6.60;99.90;;;;;;5008065;28;20060;-62
2021/12/12 19:10:56;;;;;;;5.15;2.78;;;6.60;99.90;;;;;;5003700;28;20048;-63
2021/12/12 19:13:27;;;;;;;3.00;2.67;;;6.60;99.90;;;;;;5004883;28;20053;-62
2021/12/12 19:15:55;;;;;;;21.02;8.20;;;6.60;99.90;;;;;;5000264;28;20029;-63
2021/12/12 19:18:28;;;;;;;3.17;2.80;;;6.70;99.90;;;;;;5003282;28;20034;-61
2021/12/12 19:21:06;;;;;;;2.83;2.13;;;7.50;99.90;;;;;;5004616;28;20537;-63
2021/12/12 19:23:36;;;;;;;3.40;2.72;;;7.70;99.90;;;;;;5007178;28;20449;-64
2021/12/12 19:26:04;;;;;;;4.30;2.70;;;7.50;99.90;;;;;;5004856;28;20100;-60
2021/12/12 19:28:33;;;;;;;4.57;2.88;;;7.30;99.90;;;;;;5007007;28;20034;-63
2021/12/12 19:31:03;;;;;;;2.97;2.75;;;7.10;99.90;;;;;;5002254;28;20117;-61
2021/12/12 19:33:30;;;;;;;2.42;2.22;;;7.00;99.90;;;;;;5006220;28;20041;-62
2021/12/12 19:35:58;;;;;;;3.35;2.85;;;6.90;99.90;;;;;;5003603;28;20512;-62
2021/12/12 19:38:30;;;;;;;3.50;2.83;;;6.80;99.90;;;;;;5004988;28;20029;-62
2021/12/12 19:40:59;;;;;;;2.75;2.55;;;6.80;99.90;;;;;;5004911;28;20159;-62
2021/12/12 19:43:31;;;;;;;2.63;2.42;;;6.70;99.90;;;;;;5006150;28;20333;-61
2021/12/12 19:46:02;;;;;;;2.90;2.70;;;6.70;99.90;;;;;;5006395;28;20038;-62
2021/12/12 19:48:37;;;;;;;5.10;3.30;;;6.70;99.90;;;;;;5006538;28;20026;-63
2021/12/12 19:51:10;;;;;;;4.03;3.65;;;6.70;99.90;;;;;;5002780;28;20017;-63
2021/12/12 19:53:47;;;;;;;4.00;3.60;;;6.60;99.90;;;;;;5005503;28;20026;-63
2021/12/12 19:56:14;;;;;;;3.63;3.33;;;6.60;99.90;;;;;;5004278;28;20034;-62
2021/12/12 19:58:47;;;;;;;3.70;3.17;;;6.60;99.90;;;;;;5005835;28;20386;-63
2021/12/12 20:01:16;;;;;;;5.38;3.65;;;6.60;99.90;;;;;;5005627;28;20041;-62
2021/12/12 20:03:50;;;;;;;4.28;3.55;;;6.60;99.90;;;;;;5026005;28;20286;-63
2021/12/12 20:06:26;;;;;;;3.97;3.25;;;6.60;99.90;;;;;;5024799;28;20060;-62
2021/12/12 20:08:56;;;;;;;3.03;2.78;;;6.60;99.90;;;;;;5026872;28;20478;-62
2021/12/12 20:11:35;;;;;;;3.83;3.10;;;6.60;99.90;;;;;;5025624;28;20513;-60
2021/12/12 20:14:04;;;;;;;3.30;3.00;;;6.60;99.90;;;;;;5026089;28;20244;-61
2021/12/12 20:16:41;;;;;;;3.60;3.30;;;6.60;99.90;;;;;;5026928;28;20471;-62
2021/12/12 20:19:13;;;;;;;3.03;2.80;;;6.60;99.90;;;;;;5023599;28;20040;-62
2021/12/12 20:21:43;;;;;;;3.67;3.05;;;6.60;99.90;;;;;;5006695;28;20112;-61
2021/12/12 20:24:21;;;;;;;3.78;3.17;;;6.60;99.90;;;;;;5024940;28;20120;-63
2021/12/12 20:26:50;;;;;;;3.58;3.28;;;6.60;99.90;;;;;;5025144;28;20017;-62
2021/12/12 20:29:16;;;;;;;4.03;3.65;;;6.60;99.90;;;;;;5022729;28;20032;-62
2021/12/12 20:31:43;;;;;;;4.38;3.08;;;6.60;99.90;;;;;;5024410;28;20057;-62
2021/12/12 20:34:15;;;;;;;2.97;2.75;;;6.60;99.90;;;;;;5024653;28;20116;-63
2021/12/12 20:36:45;;;;;;;6.05;3.50;;;6.60;99.90;;;;;;5024760;28;20108;-64
2021/12/12 20:39:22;;;;;;;5.18;3.70;;;6.60;99.90;;;;;;5025816;28;20140;-64
2021/12/12 20:41:58;;;;;;;4.55;3.42;;;6.60;99.90;;;;;;5025198;28;20099;-62
2021/12/12 20:44:38;;;;;;;4.30;3.75;;;6.70;99.90;;;;;;5025316;28;20029;-63
2021/12/12 20:47:48;;;;;;;4.10;3.58;;;6.70;99.90;;;;;;5024479;28;20390;-63
2021/12/12 20:50:26;;;;;;;4.30;3.33;;;6.70;99.90;;;;;;4974234;28;20058;-62
2021/12/12 20:53:36;;;;;;;4.32;3.67;;;6.70;99.90;;;;;;5017619;28;20051;-62
2021/12/12 20:56:10;;;;;;;3.88;2.88;;;6.70;99.90;;;;;;4989483;28;20042;-62
2021/12/12 20:58:59;;;;;;;5.15;3.47;;;6.70;99.90;;;;;;5024935;28;20033;-61
2021/12/12 21:01:36;;;;;;;4.50;3.55;;;6.70;99.90;;;;;;5013188;28;20037;-60
2021/12/12 21:04:06;;;;;;;3.47;3.17;;;6.70;99.90;;;;;;5023282;28;20111;-61
2021/12/12 21:06:37;;;;;;;3.50;3.20;;;6.70;99.90;;;;;;5024177;28;20778;-61
2021/12/12 21:09:23;;;;;;;3.85;3.38;;;6.70;99.90;;;;;;5026240;28;20025;-61
2021/12/12 21:11:54;;;;;;;4.13;3.72;;;6.70;99.90;;;;;;5025409;28;20033;-61
2021/12/12 21:14:28;;;;;;;4.47;3.35;;;6.70;99.90;;;;;;5026385;28;20040;-62
2021/12/12 21:17:00;;;;;;;2.60;2.40;;;6.70;99.90;;;;;;5026132;28;20489;-61
2021/12/12 21:19:27;;;;;;;5.15;3.72;;;6.70;99.90;;;;;;5026633;28;20037;-61
2021/12/12 21:21:55;;;;;;;5.95;3.38;;;6.70;99.90;;;;;;5025776;28;20045;-62
2021/12/12 21:24:28;;;;;;;3.75;3.35;;;6.70;99.90;;;;;;5023974;28;20037;-62
2021/12/12 21:27:00;;;;;;;5.38;3.78;;;6.80;99.90;;;;;;5025211;28;20021;-63
2021/12/12 21:29:33;;;;;;;4.32;3.72;;;6.80;99.90;;;;;;5023290;28;20032;-62
2021/12/12 21:32:03;;;;;;;4.22;3.83;;;6.80;99.90;;;;;;5023821;28;20513;-61
2021/12/12 21:34:35;;;;;;;4.70;3.95;;;6.80;99.90;;;;;;5023130;28;20147;-61
2021/12/12 21:37:09;;;;;;;5.32;4.18;;;6.80;99.90;;;;;;5024987;28;20029;-62
2021/12/12 21:39:53;;;;;;;4.57;4.18;;;6.80;99.90;;;;;;5022398;28;20091;-61
2021/12/12 21:42:31;;;;;;;5.38;4.30;;;6.80;99.90;;;;;;5022594;28;20029;-61
2021/12/12 21:45:10;;;;;;;5.05;4.53;;;6.80;99.90;;;;;;5022504;28;20363;-61
2021/12/12 21:47:41;;;;;;;4.75;3.92;;;6.80;99.90;;;;;;5026154;28;20359;-60
2021/12/12 21:50:13;;;;;;;6.00;4.43;;;6.80;99.90;;;;;;5025218;28;20022;-62
2021/12/12 21:53:00;;;;;;;5.22;4.07;;;6.80;99.90;;;;;;5025912;28;20084;-61
2021/12/12 21:55:31;;;;;;;5.32;4.82;;;6.80;99.90;;;;;;5024508;28;20383;-61
2021/12/12 21:58:33;;;;;;;4.57;4.18;;;6.80;99.90;;;;;;5026089;28;20490;-61
2021/12/12 22:01:20;;;;;;;6.80;4.88;;;6.90;99.90;;;;;;5022737;28;20148;-61
2021/12/12 22:04:04;;;;;;;4.40;4.00;;;6.90;99.90;;;;;;5025228;28;20030;-61
2021/12/12 22:06:34;;;;;;;4.85;4.05;;;6.90;99.90;;;;;;5026087;28;20041;-60
2021/12/12 22:09:11;;;;;;;5.07;3.88;;;6.80;99.90;;;;;;5025879;28;20053;-61
2021/12/12 22:11:49;;;;;;;5.15;4.47;;;6.90;99.90;;;;;;5026282;28;20083;-61
2021/12/12 22:14:31;;;;;;;3.92;3.60;;;6.80;99.90;;;;;;5025067;28;20100;-61
2021/12/12 22:17:13;;;;;;;5.32;4.07;;;6.90;99.90;;;;;;5025246;28;20022;-61
2021/12/12 22:19:42;;;;;;;5.47;4.68;;;6.90;99.90;;;;;;5023838;28;20052;-61
2021/12/12 22:22:12;;;;;;;5.22;4.15;;;6.90;99.90;;;;;;5024419;28;20025;-61
2021/12/12 22:24:46;;;;;;;4.80;4.32;;;6.90;99.90;;;;;;5025430;28;20110;-61
2021/12/12 22:27:20;;;;;;;6.50;4.22;;;6.90;99.90;;;;;;5024892;28;20112;-61
2021/12/12 22:29:53;;;;;;;5.03;4.30;;;6.90;99.90;;;;;;5024969;28;20028;-61
2021/12/12 22:32:21;;;;;;;5.65;4.38;;;6.90;99.90;;;;;;5022411;28;20379;-60
2021/12/12 22:34:53;;;;;;;6.18;4.97;;;6.90;99.90;;;;;;5021947;28;20502;-61
2021/12/12 22:37:21;;;;;;;5.57;5.03;;;6.90;99.90;;;;;;5022630;28;20045;-61
2021/12/12 22:39:51;;;;;;;14.10;4.57;;;6.90;99.90;;;;;;5025184;28;20029;-61
2021/12/12 22:42:31;;;;;;;5.90;5.03;;;6.90;99.90;;;;;;5022667;28;20036;-60
2021/12/12 22:45:14;;;;;;;6.75;4.95;;;6.90;99.90;;;;;;5024664;28;20430;-61
2021/12/12 22:47:44;;;;;;;5.45;4.72;;;7.00;99.90;;;;;;5024655;28;20024;-61
2021/12/12 22:50:45;;;;;;;5.85;5.22;;;7.00;99.90;;;;;;5024320;28;20017;-62
2021/12/12 22:53:19;;;;;;;5.97;4.47;;;7.00;99.90;;;;;;5024851;28;20108;-62
2021/12/12 22:55:48;;;;;;;7.90;5.10;;;7.00;99.90;;;;;;5028302;28;20029;-61
2021/12/12 22:58:18;;;;;;;4.68;4.03;;;7.00;99.90;;;;;;5026873;28;20033;-61
2021/12/12 23:01:21;;;;;;;5.60;4.05;;;7.00;99.90;;;;;;5027292;28;20120;-61
2021/12/12 23:04:09;;;;;;;5.35;4.85;;;7.00;99.90;;;;;;5027188;28;20041;-61
2021/12/12 23:06:43;;;;;;;4.97;4.18;;;7.10;99.90;;;;;;5027623;28;20033;-61
2021/12/12 23:09:14;;;;;;;5.25;4.75;;;7.00;99.90;;;;;;5024910;28;20025;-61